createdAt,value
2023-02-18T00:00:06.203Z,16.50
2023-02-18T00:02:55.738Z,16.50
2023-02-18T00:05:44.069Z,16.50
2023-02-18T00:08:33.738Z,16.50
2023-02-18T00:11:23.163Z,16.40
2023-02-18T00:14:14.041Z,16.40
2023-02-18T00:17:02.253Z,16.40
2023-02-18T00:19:50.662Z,16.40
2023-02-18T00:22:38.940Z,16.40
2023-02-18T00:25:28.772Z,16.40
2023-02-18T00:28:17.299Z,16.30
2023-02-18T00:31:09.666Z,16.40
2023-02-18T00:33:59.191Z,16.30
2023-02-18T00:36:47.847Z,16.30
2023-02-18T00:39:36.103Z,16.30
2023-02-18T00:42:25.676Z,16.30
2023-02-18T00:45:13.979Z,16.30
2023-02-18T00:48:02.420Z,16.30
2023-02-18T00:50:50.726Z,16.30
2023-02-18T00:53:39.463Z,16.30
2023-02-18T00:56:27.936Z,16.30
2023-02-18T00:59:17.553Z,16.20
2023-02-18T01:02:07.619Z,16.20
2023-02-18T01:04:55.981Z,16.20
2023-02-18T01:07:44.384Z,16.20
2023-02-18T01:10:32.788Z,16.20
2023-02-18T01:13:21.109Z,16.20
2023-02-18T01:16:11.716Z,16.20
2023-02-18T01:19:00.555Z,16.20
2023-02-18T01:21:48.911Z,16.20
2023-02-18T01:24:38.436Z,16.20
2023-02-18T01:27:26.837Z,16.10
2023-02-18T01:30:17.267Z,16.10
2023-02-18T01:33:07.067Z,16.10
2023-02-18T01:35:55.363Z,16.00
2023-02-18T01:38:43.791Z,16.00
2023-02-18T01:41:32.639Z,16.00
2023-02-18T01:44:22.920Z,16.00
2023-02-18T01:47:11.181Z,16.00
2023-02-18T01:50:02.072Z,16.00
2023-02-18T01:52:50.620Z,16.00
2023-02-18T01:55:40.308Z,16.00
2023-02-18T01:58:28.648Z,16.00
2023-02-18T02:01:17.150Z,16.00
2023-02-18T02:04:05.515Z,15.90
2023-02-18T02:06:55.368Z,15.90
2023-02-18T02:09:44.363Z,15.90
2023-02-18T02:12:47.240Z,15.90
2023-02-18T02:15:42.766Z,15.80
2023-02-18T02:18:48.002Z,15.90
2023-02-18T02:22:08.564Z,15.90
2023-02-18T02:25:19.405Z,15.90
2023-02-18T02:28:30.502Z,15.90
2023-02-18T02:31:48.273Z,15.90
2023-02-18T02:34:51.501Z,15.80
2023-02-18T02:37:45.873Z,15.80
2023-02-18T02:40:39.421Z,15.80
2023-02-18T02:43:35.571Z,15.80
2023-02-18T02:46:29.766Z,15.80
2023-02-18T02:49:29.936Z,15.80
2023-02-18T02:52:24.502Z,15.80
2023-02-18T02:55:14.000Z,15.80
2023-02-18T02:58:02.296Z,15.80
2023-02-18T03:01:09.894Z,15.70
2023-02-18T03:04:33.425Z,15.70
2023-02-18T03:07:47.083Z,15.80
2023-02-18T03:10:47.707Z,15.70
2023-02-18T03:13:52.892Z,15.70
2023-02-18T03:16:48.893Z,15.70
2023-02-18T03:19:41.122Z,15.70
2023-02-18T03:22:33.558Z,15.70
2023-02-18T03:25:24.378Z,15.70
2023-02-18T03:28:16.462Z,15.70
2023-02-18T03:31:10.093Z,15.70
2023-02-18T03:34:03.735Z,15.70
2023-02-18T03:36:52.303Z,15.70
2023-02-18T03:39:45.399Z,15.70
2023-02-18T03:42:34.303Z,15.70
2023-02-18T03:45:22.620Z,15.70
2023-02-18T03:48:11.121Z,15.70
2023-02-18T03:50:59.628Z,15.70
2023-02-18T03:53:48.282Z,15.70
2023-02-18T03:56:38.851Z,15.70
2023-02-18T03:59:27.093Z,15.70
2023-02-18T04:02:15.400Z,15.70
2023-02-18T04:05:03.784Z,15.70
2023-02-18T04:07:52.083Z,15.70
2023-02-18T04:10:40.535Z,15.70
2023-02-18T04:13:30.287Z,15.60
2023-02-18T04:16:18.524Z,15.60
2023-02-18T04:19:06.827Z,15.60
2023-02-18T04:21:55.065Z,15.60
2023-02-18T04:24:43.497Z,15.60
2023-02-18T04:27:31.761Z,15.60
2023-02-18T04:30:21.921Z,15.60
2023-02-18T04:33:10.799Z,15.60
2023-02-18T04:35:59.032Z,15.50
2023-02-18T04:38:47.562Z,15.60
2023-02-18T04:41:35.749Z,15.60
2023-02-18T04:44:24.140Z,15.60
2023-02-18T04:47:13.932Z,15.50
2023-02-18T04:50:02.366Z,15.50
2023-02-18T04:52:50.948Z,15.50
2023-02-18T04:55:39.195Z,15.60
2023-02-18T04:58:27.686Z,15.50
2023-02-18T05:01:15.979Z,15.50
2023-02-18T05:04:05.893Z,15.50
2023-02-18T05:06:54.370Z,15.50
2023-02-18T05:09:42.858Z,15.50
2023-02-18T05:12:31.301Z,15.50
2023-02-18T05:15:19.779Z,15.50
2023-02-18T05:18:08.195Z,15.50
2023-02-18T05:20:57.851Z,15.50
2023-02-18T05:23:46.313Z,15.50
2023-02-18T05:26:34.706Z,15.50
2023-02-18T05:29:22.907Z,15.50
2023-02-18T05:32:11.304Z,15.50
2023-02-18T05:34:59.594Z,15.50
2023-02-18T05:37:49.329Z,15.50
2023-02-18T05:40:37.802Z,15.50
2023-02-18T05:43:26.153Z,15.50
2023-02-18T05:46:14.618Z,15.50
2023-02-18T05:49:03.092Z,15.50
2023-02-18T05:51:51.514Z,15.50
2023-02-18T05:54:41.322Z,15.50
2023-02-18T05:57:29.641Z,15.50
2023-02-18T06:00:18.588Z,15.50
2023-02-18T06:03:06.767Z,15.50
2023-02-18T06:05:55.101Z,15.50
2023-02-18T06:08:43.508Z,15.50
2023-02-18T06:11:33.717Z,15.50
2023-02-18T06:14:22.059Z,15.50
2023-02-18T06:17:10.654Z,15.50
2023-02-18T06:19:59.196Z,15.50
2023-02-18T06:22:47.445Z,15.50
2023-02-18T06:25:35.840Z,15.50
2023-02-18T06:28:25.756Z,15.50
2023-02-18T06:31:14.337Z,15.50
2023-02-18T06:34:02.595Z,15.50
2023-02-18T06:36:50.907Z,15.60
2023-02-18T06:39:40.537Z,15.50
2023-02-18T06:42:28.839Z,15.50
2023-02-18T06:45:19.034Z,15.50
2023-02-18T06:48:07.384Z,15.50
2023-02-18T06:50:56.104Z,15.50
2023-02-18T06:53:44.776Z,15.60
2023-02-18T06:56:33.365Z,15.60
2023-02-18T06:59:21.735Z,15.60
2023-02-18T07:02:14.010Z,15.60
2023-02-18T07:05:02.580Z,15.60
2023-02-18T07:07:51.015Z,15.60
2023-02-18T07:10:40.051Z,15.60
2023-02-18T07:13:28.320Z,15.60
2023-02-18T07:16:16.663Z,15.70
2023-02-18T07:19:06.333Z,15.60
2023-02-18T07:21:57.775Z,15.70
2023-02-18T07:24:46.376Z,15.70
2023-02-18T07:27:34.778Z,15.70
2023-02-18T07:30:23.285Z,15.70
2023-02-18T07:33:11.782Z,15.70
2023-02-18T07:36:02.909Z,15.70
2023-02-18T07:38:51.110Z,15.70
2023-02-18T07:41:39.630Z,15.70
2023-02-18T07:44:28.073Z,15.70
2023-02-18T07:47:19.782Z,15.70
2023-02-18T07:50:09.823Z,15.70
2023-02-18T07:53:00.208Z,15.80
2023-02-18T07:55:51.241Z,15.80
2023-02-18T07:58:40.768Z,15.90
2023-02-18T08:01:29.153Z,15.90
2023-02-18T08:04:17.611Z,15.90
2023-02-18T08:07:06.328Z,15.90
2023-02-18T08:09:55.968Z,16.00
2023-02-18T08:12:44.178Z,16.00
2023-02-18T08:15:32.576Z,16.00
2023-02-18T08:18:23.686Z,16.00
2023-02-18T08:21:12.185Z,16.10
2023-02-18T08:24:01.470Z,16.10
2023-02-18T08:27:00.285Z,16.10
2023-02-18T08:29:49.677Z,16.30
2023-02-18T08:32:38.376Z,16.50
2023-02-18T08:35:26.705Z,16.80
2023-02-18T08:38:15.360Z,16.90
2023-02-18T08:41:04.957Z,17.10
2023-02-18T08:43:54.692Z,17.30
2023-02-18T08:46:43.005Z,17.50
2023-02-18T08:49:31.517Z,17.60
2023-02-18T08:52:19.982Z,17.80
2023-02-18T08:55:09.132Z,17.90
2023-02-18T08:57:57.584Z,17.90
2023-02-18T09:00:47.201Z,18.00
2023-02-18T09:03:35.996Z,18.10
2023-02-18T09:06:24.477Z,18.20
2023-02-18T09:09:12.967Z,18.30
2023-02-18T09:12:01.560Z,18.30
2023-02-18T09:14:50.184Z,18.30
2023-02-18T09:17:39.748Z,18.40
2023-02-18T09:20:28.765Z,18.40
2023-02-18T09:23:17.928Z,18.50
2023-02-18T09:26:07.873Z,18.50
2023-02-18T09:28:57.913Z,18.50
2023-02-18T09:31:46.507Z,18.70
2023-02-18T09:34:36.796Z,18.70
2023-02-18T09:37:25.014Z,18.70
2023-02-18T09:40:26.219Z,18.70
2023-02-18T09:43:23.750Z,18.70
2023-02-18T09:46:19.801Z,18.70
2023-02-18T09:49:14.212Z,18.70
2023-02-18T09:52:08.552Z,18.70
2023-02-18T09:54:57.403Z,18.70
2023-02-18T09:57:48.310Z,18.80
2023-02-18T10:00:38.631Z,18.80
2023-02-18T10:03:28.422Z,18.70
2023-02-18T10:06:20.832Z,18.70
2023-02-18T10:09:19.813Z,18.60
2023-02-18T10:12:15.484Z,18.50
2023-02-18T10:15:03.774Z,18.50
2023-02-18T10:17:53.117Z,18.40
2023-02-18T10:20:41.460Z,18.40
2023-02-18T10:23:32.217Z,18.30
2023-02-18T10:26:22.281Z,18.30
2023-02-18T10:29:16.573Z,18.20
2023-02-18T10:32:11.251Z,18.20
2023-02-18T10:35:08.117Z,18.20
2023-02-18T10:38:08.319Z,18.20
2023-02-18T10:41:05.940Z,18.10
2023-02-18T10:44:08.198Z,18.00
2023-02-18T10:47:05.559Z,18.00
2023-02-18T10:49:59.335Z,17.90
2023-02-18T10:52:51.409Z,17.80
2023-02-18T10:55:42.660Z,17.80
2023-02-18T10:58:38.602Z,17.70
2023-02-18T11:01:28.381Z,17.70
2023-02-18T11:04:19.074Z,17.70
2023-02-18T11:07:14.205Z,17.60
2023-02-18T11:10:10.346Z,17.60
2023-02-18T11:13:02.024Z,17.60
2023-02-18T11:16:01.371Z,17.50
2023-02-18T11:18:51.547Z,17.50
2023-02-18T11:21:39.915Z,17.50
2023-02-18T11:24:28.438Z,17.50
2023-02-18T11:27:23.955Z,17.50
2023-02-18T11:30:22.663Z,17.50
2023-02-18T11:33:28.787Z,17.50
2023-02-18T11:36:25.387Z,17.40
2023-02-18T11:39:21.213Z,17.30
2023-02-18T11:42:09.760Z,17.30
2023-02-18T11:44:59.387Z,17.30
2023-02-18T11:48:00.832Z,17.30
2023-02-18T11:50:53.311Z,17.30
2023-02-18T11:54:02.484Z,17.20
2023-02-18T11:56:58.453Z,17.20
2023-02-18T11:59:46.684Z,17.10
2023-02-18T12:02:38.350Z,17.10
2023-02-18T12:05:28.875Z,17.10
2023-02-18T12:08:23.552Z,17.10
2023-02-18T12:11:24.089Z,17.10
2023-02-18T12:14:18.560Z,17.10
2023-02-18T12:17:27.749Z,17.20
2023-02-18T12:20:42.355Z,17.30
2023-02-18T12:23:38.903Z,17.30
2023-02-18T12:26:34.110Z,17.40
2023-02-18T12:29:41.959Z,17.40
2023-02-18T12:32:40.985Z,17.20
2023-02-18T12:35:50.690Z,17.10
2023-02-18T12:39:16.513Z,16.90
2023-02-18T12:42:19.852Z,16.90
2023-02-18T12:45:35.023Z,16.90
2023-02-18T12:48:44.901Z,17.00
2023-02-18T12:51:45.700Z,17.00
2023-02-18T12:54:55.317Z,17.00
2023-02-18T12:57:51.851Z,17.00
2023-02-18T13:01:19.313Z,17.00
2023-02-18T13:04:23.041Z,17.10
2023-02-18T13:07:40.176Z,17.00
2023-02-18T13:10:52.439Z,17.00
2023-02-18T13:13:46.252Z,17.10
2023-02-18T13:16:36.167Z,17.10
2023-02-18T13:19:27.555Z,17.10
2023-02-18T13:22:19.502Z,17.10
2023-02-18T13:25:13.764Z,17.10
2023-02-18T13:28:10.166Z,17.10
2023-02-18T13:31:11.944Z,17.10
2023-02-18T13:34:07.537Z,17.10
2023-02-18T13:37:08.798Z,17.20
2023-02-18T13:39:59.167Z,17.20
2023-02-18T13:42:47.600Z,17.10
2023-02-18T13:45:36.096Z,17.20
2023-02-18T13:48:29.396Z,17.20
2023-02-18T13:51:29.249Z,17.20
2023-02-18T13:54:23.522Z,17.20
2023-02-18T13:57:16.712Z,17.20
2023-02-18T14:00:16.239Z,17.20
2023-02-18T14:03:21.812Z,17.20
2023-02-18T14:06:19.898Z,17.20
2023-02-18T14:09:36.993Z,17.20
2023-02-18T14:12:44.371Z,17.20
2023-02-18T14:15:50.150Z,17.20
2023-02-18T14:19:02.335Z,17.30
2023-02-18T14:21:52.112Z,17.40
2023-02-18T14:24:50.358Z,17.60
2023-02-18T14:27:40.003Z,17.80
2023-02-18T14:30:32.895Z,17.90
2023-02-18T14:33:21.431Z,18.10
2023-02-18T14:36:20.281Z,18.20
2023-02-18T14:39:16.296Z,18.30
2023-02-18T14:42:14.606Z,18.30
2023-02-18T14:45:19.366Z,18.50
2023-02-18T14:48:26.870Z,18.50
2023-02-18T14:51:18.017Z,18.60
2023-02-18T14:54:13.773Z,18.70
2023-02-18T14:57:06.335Z,18.80
2023-02-18T15:00:00.125Z,18.80
2023-02-18T15:02:50.206Z,18.90
2023-02-18T15:05:40.656Z,18.90
2023-02-18T15:08:37.530Z,19.00
2023-02-18T15:11:36.881Z,19.00
2023-02-18T15:14:28.675Z,19.00
2023-02-18T15:17:21.654Z,19.10
2023-02-18T15:20:13.089Z,19.10
2023-02-18T15:23:01.412Z,19.10
2023-02-18T15:25:52.744Z,19.10
2023-02-18T15:28:52.872Z,19.20
2023-02-18T15:31:41.112Z,19.20
2023-02-18T15:34:36.370Z,19.20
2023-02-18T15:37:24.969Z,19.30
2023-02-18T15:40:15.279Z,19.30
2023-02-18T15:43:07.033Z,19.30
2023-02-18T15:45:58.835Z,19.30
2023-02-18T15:48:49.522Z,19.30
2023-02-18T15:51:37.952Z,19.30
2023-02-18T15:54:26.444Z,19.30
2023-02-18T15:57:18.099Z,19.30
2023-02-18T16:00:15.181Z,19.20
2023-02-18T16:03:16.203Z,19.20
2023-02-18T16:06:14.358Z,19.00
2023-02-18T16:09:08.826Z,18.90
2023-02-18T16:12:00.413Z,18.80
2023-02-18T16:14:50.652Z,18.70
2023-02-18T16:17:40.690Z,18.70
2023-02-18T16:20:36.126Z,18.60
2023-02-18T16:23:32.201Z,18.50
2023-02-18T16:26:23.818Z,18.50
2023-02-18T16:29:14.588Z,18.50
2023-02-18T16:32:03.407Z,18.40
2023-02-18T16:34:52.110Z,18.30
2023-02-18T16:37:45.388Z,18.30
2023-02-18T16:40:35.494Z,18.30
2023-02-18T16:43:26.956Z,18.20
2023-02-18T16:46:18.699Z,18.20
2023-02-18T16:49:07.040Z,18.20
2023-02-18T16:51:55.318Z,18.10
2023-02-18T16:54:50.189Z,18.10
2023-02-18T16:57:38.847Z,18.10
2023-02-18T17:00:27.455Z,18.00
2023-02-18T17:03:15.875Z,18.00
2023-02-18T17:06:04.471Z,18.00
2023-02-18T17:08:53.085Z,18.00
2023-02-18T17:11:43.269Z,17.90
2023-02-18T17:14:32.055Z,18.00
2023-02-18T17:17:22.722Z,18.00
2023-02-18T17:20:14.643Z,17.90
2023-02-18T17:23:03.128Z,17.80
2023-02-18T17:25:52.754Z,18.00
2023-02-18T17:28:42.484Z,18.00
2023-02-18T17:31:33.288Z,18.00
2023-02-18T17:34:26.486Z,18.10
2023-02-18T17:37:15.122Z,18.20
2023-02-18T17:40:03.987Z,18.20
2023-02-18T17:42:54.370Z,18.30
2023-02-18T17:45:49.490Z,18.30
2023-02-18T17:48:37.982Z,18.40
2023-02-18T17:51:29.593Z,18.40
2023-02-18T17:54:20.179Z,18.50
2023-02-18T17:57:09.308Z,18.50
2023-02-18T17:59:58.453Z,18.50
2023-02-18T18:02:48.471Z,18.60
2023-02-18T18:05:39.867Z,18.60
2023-02-18T18:08:28.344Z,18.60
2023-02-18T18:11:20.113Z,18.60
2023-02-18T18:14:08.530Z,18.50
2023-02-18T18:16:57.063Z,18.50
2023-02-18T18:19:46.783Z,18.60
2023-02-18T18:22:35.429Z,18.60
2023-02-18T18:25:26.151Z,18.60
2023-02-18T18:28:15.337Z,18.60
2023-02-18T18:31:03.908Z,18.60
2023-02-18T18:33:53.747Z,18.60
2023-02-18T18:36:43.811Z,18.60
2023-02-18T18:39:32.033Z,18.60
2023-02-18T18:42:20.719Z,18.80
2023-02-18T18:45:21.207Z,18.80
2023-02-18T18:48:09.575Z,18.90
2023-02-18T18:51:00.678Z,18.90
2023-02-18T18:53:50.403Z,19.00
2023-02-18T18:56:38.735Z,18.90
2023-02-18T18:59:27.541Z,18.70
2023-02-18T19:02:17.705Z,18.40
2023-02-18T19:05:06.457Z,18.20
2023-02-18T19:07:55.396Z,18.10
2023-02-18T19:10:47.694Z,17.90
2023-02-18T19:13:36.918Z,17.80
2023-02-18T19:16:31.448Z,17.70
2023-02-18T19:19:21.059Z,17.60
2023-02-18T19:22:09.394Z,17.80
2023-02-18T19:24:58.036Z,17.80
2023-02-18T19:27:48.977Z,17.80
2023-02-18T19:30:38.401Z,17.60
2023-02-18T19:33:26.858Z,17.70
2023-02-18T19:36:16.801Z,17.90
2023-02-18T19:39:05.274Z,18.00
2023-02-18T19:41:53.861Z,18.10
2023-02-18T19:44:43.762Z,18.20
2023-02-18T19:47:32.041Z,18.20
2023-02-18T19:50:20.795Z,18.30
2023-02-18T19:53:09.980Z,18.30
2023-02-18T19:56:01.953Z,18.30
2023-02-18T19:58:50.937Z,18.30
2023-02-18T20:01:40.966Z,18.40
2023-02-18T20:04:29.579Z,18.40
2023-02-18T20:07:20.430Z,18.40
2023-02-18T20:10:12.417Z,18.30
2023-02-18T20:13:01.310Z,18.20
2023-02-18T20:15:49.841Z,18.10
2023-02-18T20:18:39.445Z,18.00
2023-02-18T20:21:28.236Z,18.00
2023-02-18T20:24:16.604Z,18.00
2023-02-18T20:27:05.739Z,17.90
2023-02-18T20:29:54.076Z,17.90
2023-02-18T20:32:42.495Z,17.80
2023-02-18T20:35:32.439Z,17.80
2023-02-18T20:38:21.083Z,17.90
2023-02-18T20:41:11.695Z,17.90
2023-02-18T20:44:02.612Z,17.90
2023-02-18T20:46:51.258Z,18.00
2023-02-18T20:49:40.647Z,18.00
2023-02-18T20:52:31.151Z,18.10
2023-02-18T20:55:21.316Z,18.00
2023-02-18T20:58:09.698Z,18.10
2023-02-18T21:00:59.108Z,18.10
2023-02-18T21:03:48.257Z,18.20
2023-02-18T21:06:36.872Z,18.20
2023-02-18T21:09:26.960Z,18.20
2023-02-18T21:12:15.614Z,18.20
2023-02-18T21:15:04.026Z,18.20
2023-02-18T21:17:52.676Z,18.20
2023-02-18T21:20:41.279Z,18.00
2023-02-18T21:23:29.624Z,18.00
2023-02-18T21:26:24.034Z,18.00
2023-02-18T21:29:12.563Z,17.90
2023-02-18T21:32:01.144Z,17.80
2023-02-18T21:34:49.499Z,17.70
2023-02-18T21:37:37.742Z,17.50
2023-02-18T21:40:25.996Z,17.30
2023-02-18T21:43:15.756Z,17.20
2023-02-18T21:46:14.573Z,17.00
2023-02-18T21:49:05.874Z,16.90
2023-02-18T21:52:08.305Z,16.80
2023-02-18T21:54:56.815Z,16.60
2023-02-18T21:57:45.075Z,16.50
2023-02-18T22:00:35.150Z,16.50
2023-02-18T22:03:23.884Z,16.30
2023-02-18T22:06:12.107Z,16.20
2023-02-18T22:09:01.839Z,16.10
2023-02-18T22:11:50.129Z,16.00
2023-02-18T22:14:38.490Z,15.80
2023-02-18T22:17:29.791Z,15.70
2023-02-18T22:20:18.179Z,15.70
2023-02-18T22:23:06.598Z,15.60
2023-02-18T22:25:54.851Z,15.60
2023-02-18T22:28:44.381Z,15.50
2023-02-18T22:31:33.342Z,15.40
2023-02-18T22:34:24.305Z,15.30
2023-02-18T22:37:12.577Z,15.20
2023-02-18T22:40:00.945Z,15.20
2023-02-18T22:42:49.261Z,15.20
2023-02-18T22:45:38.459Z,15.20
2023-02-18T22:48:26.743Z,15.20
2023-02-18T22:51:18.075Z,15.30
2023-02-18T22:54:08.697Z,15.50
2023-02-18T22:56:58.381Z,15.60
2023-02-18T22:59:46.961Z,15.80
2023-02-18T23:02:35.341Z,15.80
2023-02-18T23:05:23.672Z,15.90
2023-02-18T23:08:13.357Z,16.10
2023-02-18T23:11:02.412Z,16.20
2023-02-18T23:14:04.958Z,16.20
2023-02-18T23:17:14.761Z,16.30
2023-02-18T23:20:03.264Z,16.30
2023-02-18T23:22:51.425Z,16.40
2023-02-18T23:25:40.968Z,16.40
2023-02-18T23:28:29.261Z,16.40
2023-02-18T23:31:19.453Z,16.40
2023-02-18T23:34:09.587Z,16.40
2023-02-18T23:36:58.343Z,16.50
2023-02-18T23:39:47.458Z,16.50
2023-02-18T23:42:37.051Z,16.50
2023-02-18T23:45:25.603Z,16.50
2023-02-18T23:48:13.804Z,16.50
2023-02-18T23:51:03.769Z,16.50
2023-02-18T23:53:52.334Z,16.50
2023-02-18T23:56:40.954Z,16.40
2023-02-18T23:59:30.517Z,16.50
